Time;durP1;ratioP1;P1;durP2;ratioP2;P2;SDS_P1;SDS_P2;PMS_P1;PMS_P2;Temp;Humidity;BMP_temperature;BMP_pressure;BME280_temperature;BME280_humidity;BME280_pressure;Samples;Min_cycle;Max_cycle;Signal;HPM_P1;HPM_P2
2023/01/03 00:01:21;;;;;;;7.47;2.80;;;4.40;99.90;;;;;;5028722;28;20482;-73
2023/01/03 00:03:47;;;;;;;9.32;3.75;;;4.40;99.90;;;;;;5028464;28;20039;-72
2023/01/03 00:06:24;;;;;;;7.03;3.80;;;4.40;99.90;;;;;;5029345;28;20037;-71
2023/01/03 00:08:50;;;;;;;6.65;3.20;;;4.30;99.90;;;;;;5028759;28;20037;-72
2023/01/03 00:11:19;;;;;;;13.73;4.55;;;4.30;99.90;;;;;;5028922;28;20040;-72
2023/01/03 00:13:44;;;;;;;9.85;4.05;;;4.30;99.90;;;;;;5027351;28;20120;-72
2023/01/03 00:16:17;;;;;;;13.45;4.75;;;4.30;99.90;;;;;;5028301;28;20128;-72
2023/01/03 00:18:43;;;;;;;7.70;4.00;;;4.40;99.90;;;;;;5027930;28;20457;-73
2023/01/03 00:21:09;;;;;;;9.80;3.25;;;4.40;99.90;;;;;;5026668;28;20037;-72
2023/01/03 00:23:34;;;;;;;9.75;3.70;;;4.50;99.90;;;;;;5028124;28;20034;-72
2023/01/03 00:26:08;;;;;;;15.27;4.75;;;4.60;99.90;;;;;;5026724;28;20788;-72
2023/01/03 00:28:34;;;;;;;12.43;3.53;;;4.60;99.90;;;;;;5026700;28;20133;-72
2023/01/03 00:31:08;;;;;;;11.13;3.58;;;4.60;99.90;;;;;;5027950;28;20552;-72
2023/01/03 00:33:35;;;;;;;7.22;3.67;;;4.60;99.90;;;;;;5025205;28;20033;-70
2023/01/03 00:36:02;;;;;;;8.00;3.00;;;4.70;99.90;;;;;;5026385;28;20123;-72
2023/01/03 00:38:28;;;;;;;14.15;3.60;;;4.80;99.90;;;;;;5026692;28;20141;-72
2023/01/03 00:40:53;;;;;;;5.93;3.40;;;4.80;99.90;;;;;;5024390;28;20533;-72
2023/01/03 00:43:28;;;;;;;10.75;3.47;;;4.80;99.90;;;;;;5026244;28;20068;-72
2023/01/03 00:45:53;;;;;;;7.03;3.13;;;4.70;99.90;;;;;;5027252;28;20029;-71
2023/01/03 00:48:19;;;;;;;8.95;3.95;;;4.70;99.90;;;;;;5028502;28;20445;-72
2023/01/03 00:50:45;;;;;;;9.45;3.53;;;4.70;99.90;;;;;;5026787;28;20059;-72
2023/01/03 00:53:10;;;;;;;13.88;3.38;;;4.80;99.90;;;;;;5028110;28;20026;-72
2023/01/03 00:55:36;;;;;;;5.97;3.03;;;4.80;99.90;;;;;;5026653;28;20048;-72
2023/01/03 00:58:01;;;;;;;7.88;3.25;;;4.70;99.90;;;;;;5026219;28;20112;-72
2023/01/03 01:00:27;;;;;;;6.38;3.08;;;4.70;99.90;;;;;;5027292;28;20039;-72
2023/01/03 01:02:53;;;;;;;6.88;3.05;;;4.70;99.90;;;;;;5027609;28;20398;-72
2023/01/03 01:05:19;;;;;;;7.28;3.05;;;4.60;99.90;;;;;;5027496;28;20124;-71
2023/01/03 01:07:44;;;;;;;5.30;2.58;;;4.60;99.90;;;;;;5026611;28;20043;-73
2023/01/03 01:10:10;;;;;;;8.57;2.88;;;4.60;99.90;;;;;;5027695;28;20444;-72
2023/01/03 01:12:36;;;;;;;12.20;3.53;;;4.50;99.90;;;;;;5027187;28;20034;-72
2023/01/03 01:15:01;;;;;;;6.35;2.92;;;4.50;99.90;;;;;;5025661;28;20083;-72
2023/01/03 01:17:27;;;;;;;9.93;2.97;;;4.50;99.90;;;;;;5026871;28;20034;-72
2023/01/03 01:19:53;;;;;;;14.85;3.28;;;4.40;99.90;;;;;;5027340;28;20037;-71
2023/01/03 01:22:19;;;;;;;9.75;3.83;;;4.40;99.90;;;;;;5027771;28;20129;-71
2023/01/03 01:24:44;;;;;;;6.65;3.10;;;4.40;99.90;;;;;;5026382;28;20030;-72
2023/01/03 01:27:10;;;;;;;10.13;3.30;;;4.40;99.90;;;;;;5027891;28;20032;-71
2023/01/03 01:29:37;;;;;;;8.07;3.47;;;4.30;99.90;;;;;;5026819;28;20033;-72
2023/01/03 01:32:03;;;;;;;11.50;4.25;;;4.40;99.90;;;;;;5024754;28;20041;-72
2023/01/03 01:34:29;;;;;;;10.20;3.17;;;4.40;99.90;;;;;;5027708;28;20037;-71
2023/01/03 01:36:55;;;;;;;8.18;3.10;;;4.40;99.90;;;;;;5027145;28;20037;-72
2023/01/03 01:39:23;;;;;;;11.13;3.58;;;4.40;99.90;;;;;;5033905;28;20032;-71
2023/01/03 01:44:41;;;;;;;9.40;3.45;;;4.30;99.90;;;;;;5023646;28;20078;-72
2023/01/03 01:47:31;;;;;;;8.40;3.92;;;4.30;99.90;;;;;;5026139;28;20116;-72
2023/01/03 01:50:20;;;;;;;7.65;3.08;;;4.30;99.90;;;;;;5023997;28;20106;-71
2023/01/03 01:53:13;;;;;;;14.27;3.40;;;4.20;99.90;;;;;;5025607;28;20145;-72
2023/01/03 01:55:43;;;;;;;10.05;3.63;;;4.10;99.90;;;;;;5024063;28;20049;-71
2023/01/03 01:58:09;;;;;;;10.95;4.57;;;4.10;99.90;;;;;;5027138;28;20040;-71
2023/01/03 02:00:36;;;;;;;11.50;4.15;;;4.10;99.90;;;;;;5024853;28;20037;-71
2023/01/03 02:03:02;;;;;;;10.30;3.90;;;4.10;99.90;;;;;;5022270;28;20502;-71
2023/01/03 02:05:30;;;;;;;7.68;3.80;;;4.10;99.90;;;;;;5026623;28;20691;-70
2023/01/03 02:07:56;;;;;;;12.20;4.38;;;4.10;99.90;;;;;;5026473;28;20091;-71
2023/01/03 02:10:48;;;;;;;9.75;3.45;;;4.00;99.90;;;;;;5024729;28;20094;-72
2023/01/03 02:13:16;;;;;;;11.60;4.60;;;4.00;99.90;;;;;;5023677;28;20313;-72
2023/01/03 02:15:57;;;;;;;9.55;4.03;;;3.90;99.90;;;;;;5024489;28;20091;-72
2023/01/03 02:18:38;;;;;;;9.90;4.35;;;3.90;99.90;;;;;;5025006;28;20045;-71
2023/01/03 02:21:25;;;;;;;12.38;3.83;;;3.80;99.90;;;;;;5024074;28;20041;-71
2023/01/03 02:24:19;;;;;;;8.55;3.38;;;3.70;99.90;;;;;;5024041;28;20093;-70
2023/01/03 02:26:50;;;;;;;6.72;3.53;;;3.70;99.90;;;;;;5024153;28;20034;-71
2023/01/03 02:29:41;;;;;;;8.02;4.10;;;3.60;99.90;;;;;;5026536;28;20079;-71
2023/01/03 02:32:18;;;;;;;9.27;3.45;;;3.60;99.90;;;;;;5026011;28;20065;-71
2023/01/03 02:34:53;;;;;;;8.88;3.58;;;3.60;99.90;;;;;;5024884;28;20029;-72
2023/01/03 02:37:26;;;;;;;13.45;4.22;;;3.60;99.90;;;;;;5026851;28;20442;-72
2023/01/03 02:39:57;;;;;;;11.13;4.60;;;3.70;99.90;;;;;;5028806;28;20061;-72
2023/01/03 02:43:00;;;;;;;18.55;6.00;;;3.70;99.90;;;;;;5030255;28;20033;-71
2023/01/03 02:45:45;;;;;;;22.77;6.53;;;3.90;99.90;;;;;;5028937;28;20052;-71
2023/01/03 02:48:14;;;;;;;28.65;8.80;;;4.00;99.90;;;;;;5030428;28;20045;-72
2023/01/03 02:50:46;;;;;;;23.52;9.35;;;4.10;99.90;;;;;;5031494;28;20051;-72
2023/01/03 02:53:20;;;;;;;37.08;10.57;;;4.20;99.90;;;;;;5029933;28;20030;-72
2023/01/03 02:55:50;;;;;;;40.28;11.45;;;4.30;99.90;;;;;;5029367;28;20120;-72
2023/01/03 02:58:21;;;;;;;117.63;17.30;;;4.40;99.90;;;;;;5031127;28;20087;-72
2023/01/03 03:00:51;;;;;;;141.98;16.55;;;4.50;99.90;;;;;;5031194;28;20033;-72
2023/01/03 03:03:20;;;;;;;146.53;15.00;;;4.60;99.90;;;;;;5029778;28;20680;-72
2023/01/03 03:06:03;;;;;;;139.95;15.52;;;4.60;99.90;;;;;;5026313;28;20033;-72
2023/01/03 03:08:28;;;;;;;75.75;11.00;;;4.70;99.90;;;;;;5027283;28;20037;-72
2023/01/03 03:13:44;;;;;;;90.97;12.55;;;4.70;99.90;;;;;;5026670;28;20059;-72
2023/01/03 03:16:46;;;;;;;133.10;16.05;;;4.70;99.90;;;;;;5028688;28;20033;-72
2023/01/03 03:25:11;;;;;;;105.50;14.07;;;4.60;99.90;;;;;;5027278;28;20060;-71
2023/01/03 03:30:26;;;;;;;78.60;10.98;;;4.60;99.90;;;;;;5028658;28;20124;-71
2023/01/03 03:32:56;;;;;;;106.40;12.73;;;4.70;99.90;;;;;;5028853;28;20052;-70
2023/01/03 03:35:24;;;;;;;43.40;9.10;;;4.70;99.90;;;;;;5027832;28;20102;-71
2023/01/03 03:37:55;;;;;;;50.55;9.27;;;4.70;99.90;;;;;;5027163;28;20029;-73
2023/01/03 03:46:21;;;;;;;62.20;9.85;;;4.60;99.90;;;;;;5027666;28;20060;-73
2023/01/03 03:51:58;;;;;;;54.67;9.55;;;4.50;99.90;;;;;;5027123;28;20032;-73
2023/01/03 03:54:26;;;;;;;38.65;9.15;;;4.40;99.90;;;;;;5026938;28;20037;-72
2023/01/03 03:57:02;;;;;;;24.83;8.35;;;4.40;99.90;;;;;;5028444;28;20121;-71
2023/01/03 03:59:30;;;;;;;84.25;11.63;;;4.40;99.90;;;;;;5027754;28;20084;-71
2023/01/03 04:01:59;;;;;;;54.17;9.25;;;4.30;99.90;;;;;;5033294;28;20040;-71
2023/01/03 04:04:31;;;;;;;56.95;9.32;;;4.40;99.90;;;;;;5027508;28;20040;-71
2023/01/03 04:06:57;;;;;;;57.72;10.40;;;4.30;99.90;;;;;;5028340;28;20116;-71
2023/01/03 04:09:22;;;;;;;47.78;8.65;;;4.30;99.90;;;;;;5029639;28;20124;-71
2023/01/03 04:11:48;;;;;;;99.22;10.02;;;4.30;99.90;;;;;;5028186;28;20516;-70
2023/01/03 04:14:14;;;;;;;170.73;14.52;;;4.30;99.90;;;;;;5027711;28;20040;-70
2023/01/03 04:16:42;;;;;;;68.90;10.90;;;4.40;99.90;;;;;;5029048;28;20532;-71
2023/01/03 04:19:08;;;;;;;63.90;10.55;;;4.40;99.90;;;;;;5028464;28;20129;-71
2023/01/03 04:21:35;;;;;;;43.88;9.68;;;4.40;99.90;;;;;;5026589;28;20128;-72
2023/01/03 04:24:01;;;;;;;38.67;10.10;;;4.40;99.90;;;;;;5027892;28;20716;-72
2023/01/03 04:26:27;;;;;;;33.08;10.65;;;4.40;99.90;;;;;;5028177;28;20052;-71
2023/01/03 04:28:53;;;;;;;21.38;9.13;;;4.40;99.90;;;;;;5028582;28;20482;-72
2023/01/03 04:31:18;;;;;;;16.52;8.85;;;4.30;99.90;;;;;;5026746;28;20041;-71
2023/01/03 04:33:44;;;;;;;25.27;10.85;;;4.30;99.90;;;;;;5027658;28;20095;-72
2023/01/03 04:36:09;;;;;;;22.10;9.85;;;4.30;99.90;;;;;;5026675;28;20043;-70
2023/01/03 04:38:35;;;;;;;20.42;9.27;;;4.20;99.90;;;;;;5027697;28;20452;-71
2023/01/03 04:41:07;;;;;;;16.67;8.20;;;4.20;99.90;;;;;;5026560;28;20080;-72
2023/01/03 04:46:17;;;;;;;20.40;9.02;;;4.10;99.90;;;;;;5027929;28;20469;-72
2023/01/03 04:48:43;;;;;;;18.75;8.70;;;4.10;99.90;;;;;;5027563;28;20041;-72
2023/01/03 04:51:09;;;;;;;20.38;9.07;;;4.10;99.90;;;;;;5026268;28;20037;-71
2023/01/03 04:53:34;;;;;;;17.08;8.60;;;4.00;99.90;;;;;;5026681;28;20099;-72
2023/01/03 04:56:00;;;;;;;21.27;9.15;;;4.00;99.90;;;;;;5028017;28;20041;-71
2023/01/03 04:58:25;;;;;;;21.23;9.40;;;4.00;99.90;;;;;;5027966;28;20552;-71
2023/01/03 05:00:57;;;;;;;21.13;9.50;;;4.00;99.90;;;;;;5025410;28;20557;-71
2023/01/03 05:03:23;;;;;;;25.90;10.48;;;4.00;99.90;;;;;;5026307;28;20060;-71
2023/01/03 05:05:48;;;;;;;28.38;9.45;;;4.00;99.90;;;;;;5027498;28;20059;-71
2023/01/03 05:08:14;;;;;;;21.67;9.48;;;4.00;99.90;;;;;;5027463;28;20041;-71
2023/01/03 05:10:40;;;;;;;25.60;9.63;;;4.00;99.90;;;;;;5027231;28;20037;-71
2023/01/03 05:13:06;;;;;;;23.08;9.43;;;3.90;99.90;;;;;;5023927;28;20129;-71
2023/01/03 05:15:37;;;;;;;20.00;9.20;;;3.90;99.90;;;;;;5027043;28;20406;-71
2023/01/03 05:18:03;;;;;;;23.58;9.80;;;3.90;99.90;;;;;;5027038;28;20037;-72
2023/01/03 05:26:02;;;;;;;23.63;9.32;;;3.90;99.90;;;;;;5025188;28;20120;-71
2023/01/03 05:28:28;;;;;;;27.80;11.20;;;3.90;99.90;;;;;;5025124;28;20413;-71
2023/01/03 05:30:56;;;;;;;23.35;10.55;;;3.90;99.90;;;;;;5025080;28;20517;-71
2023/01/03 05:33:21;;;;;;;20.95;9.80;;;3.80;99.90;;;;;;5023531;28;20048;-72
2023/01/03 05:35:47;;;;;;;18.48;9.77;;;3.80;99.90;;;;;;5025954;28;20029;-71
2023/01/03 05:38:13;;;;;;;21.52;10.50;;;3.80;99.90;;;;;;5025066;28;20065;-71
2023/01/03 05:40:39;;;;;;;19.60;9.60;;;3.80;99.90;;;;;;5025107;28;20072;-71
2023/01/03 05:43:04;;;;;;;23.52;9.75;;;3.80;99.90;;;;;;5026131;28;20049;-71
2023/01/03 05:45:30;;;;;;;20.13;8.48;;;3.80;99.90;;;;;;5026158;28;20087;-71
2023/01/03 05:47:57;;;;;;;20.25;9.93;;;3.80;99.90;;;;;;5026613;28;20044;-71
2023/01/03 05:50:23;;;;;;;20.33;9.20;;;3.80;99.90;;;;;;5025494;28;20065;-72
2023/01/03 05:52:49;;;;;;;19.48;9.05;;;3.90;99.90;;;;;;5026658;28;20076;-71
2023/01/03 05:55:15;;;;;;;23.58;10.75;;;3.90;99.90;;;;;;5025897;28;20029;-72
2023/01/03 05:57:41;;;;;;;22.35;9.18;;;3.90;99.90;;;;;;5026421;28;20132;-71
2023/01/03 06:00:07;;;;;;;23.48;9.45;;;3.90;99.90;;;;;;5019094;28;20104;-71
2023/01/03 06:02:33;;;;;;;23.75;10.02;;;3.90;99.90;;;;;;5025234;28;20121;-72
2023/01/03 06:04:58;;;;;;;30.70;10.95;;;3.90;99.90;;;;;;5026221;28;20109;-71
2023/01/03 06:07:24;;;;;;;20.40;9.38;;;3.90;99.90;;;;;;5024765;28;20041;-71
2023/01/03 06:09:49;;;;;;;21.20;9.73;;;3.90;99.90;;;;;;5024194;28;20056;-71
2023/01/03 06:12:15;;;;;;;20.67;10.02;;;3.90;99.90;;;;;;5023048;28;20049;-71
2023/01/03 06:14:41;;;;;;;18.25;8.68;;;4.00;99.90;;;;;;5025522;28;20654;-73
2023/01/03 06:19:50;;;;;;;17.27;8.60;;;4.00;99.90;;;;;;5029116;28;20088;-71
2023/01/03 06:22:16;;;;;;;25.50;9.13;;;4.00;99.90;;;;;;5036925;28;20037;-71
2023/01/03 06:24:41;;;;;;;24.17;9.50;;;4.10;99.90;;;;;;5029090;28;20041;-70
2023/01/03 06:27:07;;;;;;;20.33;8.65;;;4.10;99.90;;;;;;5028672;28;20033;-72
2023/01/03 06:29:32;;;;;;;24.13;7.93;;;4.20;99.90;;;;;;5028643;28;20856;-72
2023/01/03 06:31:58;;;;;;;16.88;7.72;;;4.20;99.90;;;;;;5028039;28;20034;-71
2023/01/03 06:34:23;;;;;;;14.88;7.20;;;4.30;99.90;;;;;;5028272;28;20036;-73
2023/01/03 06:36:49;;;;;;;21.13;7.80;;;4.40;99.90;;;;;;5028517;28;20107;-72
2023/01/03 06:39:15;;;;;;;17.25;7.93;;;4.40;99.90;;;;;;5028533;28;20037;-72
2023/01/03 06:41:40;;;;;;;17.88;6.95;;;4.50;99.90;;;;;;5028371;28;20641;-73
2023/01/03 06:44:06;;;;;;;25.05;8.00;;;4.60;99.90;;;;;;5028204;28;20110;-72
2023/01/03 06:54:47;;;;;;;18.92;6.57;;;4.70;99.90;;;;;;5027779;28;20106;-71
2023/01/03 06:57:13;;;;;;;15.90;6.45;;;4.70;99.90;;;;;;5028455;28;20034;-70
2023/01/03 06:59:39;;;;;;;19.13;7.38;;;4.80;99.90;;;;;;5027190;28;20049;-71
2023/01/03 07:02:05;;;;;;;15.55;7.18;;;4.80;99.90;;;;;;5025034;28;20892;-71
2023/01/03 07:04:31;;;;;;;15.55;7.20;;;4.80;99.90;;;;;;5028289;28;21415;-71
2023/01/03 07:06:57;;;;;;;17.90;6.55;;;4.90;99.90;;;;;;5029670;28;20033;-71
2023/01/03 07:09:23;;;;;;;16.63;6.47;;;4.90;99.90;;;;;;5029649;28;20409;-72
2023/01/03 07:11:49;;;;;;;19.10;7.45;;;4.90;99.90;;;;;;5027848;28;20036;-72
2023/01/03 07:14:16;;;;;;;20.83;6.65;;;4.90;99.90;;;;;;5029285;28;20116;-71
2023/01/03 07:16:43;;;;;;;22.73;7.65;;;4.90;99.90;;;;;;5029091;28;20041;-72
2023/01/03 07:19:16;;;;;;;17.83;6.10;;;4.90;99.90;;;;;;5032083;28;20060;-71
2023/01/03 07:21:42;;;;;;;16.75;7.30;;;4.90;99.90;;;;;;5028162;28;20064;-71
2023/01/03 07:24:12;;;;;;;19.65;6.78;;;5.00;99.90;;;;;;5027831;28;20151;-72
2023/01/03 07:26:37;;;;;;;19.80;6.80;;;4.90;99.90;;;;;;5028283;28;20037;-72
2023/01/03 07:29:05;;;;;;;16.55;6.78;;;5.00;99.90;;;;;;5026874;28;20033;-72
2023/01/03 07:31:31;;;;;;;19.95;7.35;;;5.00;99.90;;;;;;5027973;28;20033;-72
2023/01/03 07:33:57;;;;;;;15.95;7.07;;;5.00;99.90;;;;;;5028145;28;20051;-72
2023/01/03 07:36:23;;;;;;;16.55;7.10;;;5.00;99.90;;;;;;5029835;28;20033;-72
2023/01/03 07:38:49;;;;;;;17.35;6.88;;;5.00;99.90;;;;;;5028615;28;20081;-72
2023/01/03 07:41:18;;;;;;;16.00;6.55;;;5.00;99.90;;;;;;5028837;28;20057;-72
2023/01/03 07:43:46;;;;;;;22.70;7.07;;;5.00;99.90;;;;;;5026916;28;21573;-72
2023/01/03 07:46:16;;;;;;;11.43;6.07;;;5.00;99.90;;;;;;5027006;28;20044;-72
2023/01/03 07:48:43;;;;;;;18.92;6.47;;;5.10;99.90;;;;;;5025743;28;20034;-71
2023/01/03 07:51:11;;;;;;;14.05;6.45;;;5.10;99.90;;;;;;5027086;28;20038;-71
2023/01/03 07:53:37;;;;;;;10.82;5.70;;;5.10;99.90;;;;;;5027169;28;20075;-71
2023/01/03 07:56:05;;;;;;;13.48;5.90;;;5.10;99.90;;;;;;5027543;28;20037;-72
2023/01/03 07:58:31;;;;;;;14.18;5.63;;;5.10;99.90;;;;;;5027429;28;20041;-71
2023/01/03 08:01:04;;;;;;;15.32;6.07;;;5.20;99.90;;;;;;5027662;28;20053;-72
2023/01/03 08:03:30;;;;;;;14.85;5.88;;;5.10;99.90;;;;;;5026333;28;20037;-72
2023/01/03 08:05:59;;;;;;;17.10;6.38;;;5.10;99.90;;;;;;5027007;28;20831;-72
2023/01/03 08:08:25;;;;;;;15.02;7.43;;;5.10;99.90;;;;;;5027333;28;20478;-72
2023/01/03 08:13:34;;;;;;;15.25;6.30;;;5.20;99.90;;;;;;5027179;28;20048;-72
2023/01/03 08:16:00;;;;;;;12.55;5.75;;;5.30;99.90;;;;;;5027216;28;20034;-72
2023/01/03 08:18:27;;;;;;;13.07;5.80;;;5.30;99.90;;;;;;5027264;28;20120;-72
2023/01/03 08:20:55;;;;;;;15.43;6.60;;;5.30;99.90;;;;;;5026782;28;20214;-72
2023/01/03 08:23:22;;;;;;;15.13;6.22;;;5.30;99.90;;;;;;5026767;28;20033;-72
2023/01/03 08:25:48;;;;;;;21.15;7.15;;;5.30;99.90;;;;;;5027199;28;20038;-71
2023/01/03 08:28:14;;;;;;;16.13;6.95;;;5.40;99.90;;;;;;5026004;28;20052;-72
2023/01/03 08:30:45;;;;;;;15.98;6.13;;;5.50;99.90;;;;;;5027340;28;20120;-72
2023/01/03 08:33:13;;;;;;;13.48;5.90;;;5.50;99.90;;;;;;5024323;28;20123;-72
2023/01/03 08:35:42;;;;;;;17.02;6.72;;;5.50;99.90;;;;;;5025083;28;20076;-72
2023/01/03 08:38:12;;;;;;;10.65;5.85;;;5.50;99.90;;;;;;5025105;28;20026;-72
2023/01/03 08:40:40;;;;;;;15.05;5.40;;;5.60;99.90;;;;;;5024524;28;20149;-72
2023/01/03 08:43:06;;;;;;;17.58;6.65;;;5.60;99.90;;;;;;5026800;28;20121;-72
2023/01/03 08:45:33;;;;;;;17.88;7.40;;;5.60;99.90;;;;;;5029401;28;20059;-72
2023/01/03 08:48:01;;;;;;;16.42;5.82;;;5.70;99.90;;;;;;5026923;28;20041;-71
2023/01/03 08:50:29;;;;;;;14.02;6.28;;;5.70;99.90;;;;;;5026843;28;20429;-71
2023/01/03 08:52:55;;;;;;;16.20;7.38;;;5.80;99.90;;;;;;5025315;28;20036;-72
2023/01/03 08:55:20;;;;;;;13.95;6.70;;;5.80;99.90;;;;;;5027987;28;20033;-72
2023/01/03 08:57:46;;;;;;;22.23;6.93;;;5.90;99.90;;;;;;5027995;28;20410;-71
2023/01/03 09:00:12;;;;;;;16.80;6.25;;;5.90;99.90;;;;;;5028163;28;20195;-71
2023/01/03 09:02:38;;;;;;;18.15;6.53;;;5.90;99.90;;;;;;5024816;28;20036;-71
2023/01/03 09:05:04;;;;;;;16.23;6.28;;;5.90;99.90;;;;;;5027170;28;20022;-71
2023/01/03 09:07:29;;;;;;;20.02;7.32;;;6.00;99.90;;;;;;5026966;28;20040;-71
2023/01/03 09:09:55;;;;;;;20.20;7.53;;;6.00;99.90;;;;;;5026352;28;20402;-72
2023/01/03 09:12:20;;;;;;;16.15;6.38;;;6.00;99.90;;;;;;5026067;28;20049;-72
2023/01/03 09:14:46;;;;;;;17.40;6.82;;;6.00;99.90;;;;;;5026050;28;20036;-74
2023/01/03 09:17:12;;;;;;;23.23;7.85;;;6.10;99.90;;;;;;5023895;28;20580;-72
2023/01/03 09:19:37;;;;;;;29.30;9.55;;;6.10;99.90;;;;;;5026414;28;20037;-71
2023/01/03 09:22:03;;;;;;;25.55;8.30;;;6.20;99.90;;;;;;5024155;28;20061;-71
2023/01/03 09:24:28;;;;;;;26.75;8.98;;;6.20;99.90;;;;;;5026200;28;20402;-71
2023/01/03 09:26:54;;;;;;;26.65;9.27;;;6.20;99.90;;;;;;5026371;28;20128;-72
2023/01/03 09:29:19;;;;;;;24.50;8.75;;;6.20;99.90;;;;;;5025786;28;20037;-72
2023/01/03 09:31:45;;;;;;;23.17;8.50;;;6.30;99.90;;;;;;5026458;28;20025;-71
2023/01/03 09:34:11;;;;;;;25.08;8.77;;;6.40;99.90;;;;;;5025855;28;20033;-71
2023/01/03 09:36:37;;;;;;;24.50;9.25;;;6.40;99.90;;;;;;5024455;28;20037;-72
2023/01/03 09:39:03;;;;;;;22.90;8.25;;;6.50;99.90;;;;;;5025784;28;20029;-72
2023/01/03 09:41:29;;;;;;;23.65;9.52;;;6.50;99.90;;;;;;5025975;28;20077;-72
2023/01/03 09:44:01;;;;;;;29.33;9.00;;;6.60;99.90;;;;;;5023665;28;20072;-71
2023/01/03 09:46:28;;;;;;;27.83;11.00;;;6.60;99.90;;;;;;5024067;28;20445;-72
2023/01/03 09:48:54;;;;;;;31.50;11.15;;;6.60;99.90;;;;;;5024172;28;20060;-72
2023/01/03 10:06:30;;;;;;;28.35;11.13;;;6.70;99.90;;;;;;5025220;28;20055;-72
2023/01/03 10:09:17;;;;;;;31.75;10.68;;;6.80;99.90;;;;;;5024064;28;20042;-72
2023/01/03 10:12:14;;;;;;;30.98;10.75;;;6.80;99.90;;;;;;5024157;28;20059;-71
2023/01/03 10:15:10;;;;;;;30.95;11.15;;;6.80;99.90;;;;;;5023265;28;20128;-71
2023/01/03 10:17:56;;;;;;;35.83;11.18;;;6.80;99.90;;;;;;5022001;28;20045;-73
2023/01/03 10:20:42;;;;;;;33.60;11.30;;;6.90;99.90;;;;;;5024845;28;20516;-72
2023/01/03 10:23:09;;;;;;;28.30;10.52;;;6.90;99.90;;;;;;5023512;28;20037;-72
2023/01/03 10:25:37;;;;;;;39.97;12.60;;;6.90;99.90;;;;;;5025568;28;20064;-72
2023/01/03 10:28:16;;;;;;;39.00;11.40;;;7.00;99.90;;;;;;5025855;28;20033;-71
2023/01/03 10:31:10;;;;;;;36.83;12.57;;;7.00;99.90;;;;;;5021022;28;20041;-71
2023/01/03 10:33:44;;;;;;;37.22;13.18;;;7.00;99.90;;;;;;5022745;28;20152;-71
2023/01/03 10:36:09;;;;;;;40.20;12.95;;;7.10;99.90;;;;;;5022223;28;20045;-72
2023/01/03 10:38:37;;;;;;;34.08;11.80;;;7.10;99.90;;;;;;5025333;28;20029;-71
2023/01/03 10:41:03;;;;;;;31.10;10.70;;;7.20;99.90;;;;;;5023884;28;20032;-70
2023/01/03 10:43:38;;;;;;;42.05;11.77;;;7.10;99.90;;;;;;5023525;28;21127;-72
2023/01/03 10:46:20;;;;;;;29.85;11.13;;;7.10;99.90;;;;;;5021809;28;20040;-71
2023/01/03 10:48:51;;;;;;;26.15;9.45;;;7.20;99.90;;;;;;5023078;28;20520;-72
2023/01/03 10:51:46;;;;;;;28.13;11.02;;;7.20;99.90;;;;;;5024927;28;20033;-72
2023/01/03 10:54:23;;;;;;;27.15;11.13;;;7.30;99.90;;;;;;5022223;28;20068;-72
2023/01/03 10:56:50;;;;;;;29.42;10.68;;;7.40;99.90;;;;;;5023251;28;20052;-71
2023/01/03 10:59:28;;;;;;;34.03;10.90;;;7.40;99.90;;;;;;5025465;28;20038;-72
2023/01/03 11:02:02;;;;;;;30.88;11.07;;;7.50;99.90;;;;;;5025846;28;20037;-72
2023/01/03 11:04:30;;;;;;;29.40;10.35;;;7.50;99.90;;;;;;5026854;28;20040;-72
2023/01/03 11:07:07;;;;;;;25.77;9.98;;;7.60;99.90;;;;;;5024838;28;20113;-72
2023/01/03 11:09:40;;;;;;;45.17;10.85;;;7.60;99.90;;;;;;5032686;28;20521;-72
2023/01/03 11:12:23;;;;;;;31.52;9.95;;;7.70;99.90;;;;;;5026764;28;20029;-71
2023/01/03 11:14:55;;;;;;;30.30;10.25;;;7.70;99.90;;;;;;5024619;28;20406;-73
2023/01/03 11:17:22;;;;;;;21.08;9.15;;;7.80;99.90;;;;;;5027859;28;20040;-71
2023/01/03 11:19:48;;;;;;;30.00;10.50;;;7.80;99.90;;;;;;5028822;28;20048;-73
2023/01/03 11:22:39;;;;;;;20.25;8.15;;;7.80;99.90;;;;;;5027596;28;20098;-72
2023/01/03 11:25:11;;;;;;;23.00;7.75;;;7.80;99.90;;;;;;5027422;28;20038;-71
2023/01/03 11:28:04;;;;;;;27.80;9.45;;;7.80;99.90;;;;;;5027381;28;20029;-72
2023/01/03 11:30:44;;;;;;;23.90;8.70;;;7.90;99.90;;;;;;5026412;28;20045;-71
2023/01/03 11:33:30;;;;;;;23.67;7.27;;;7.90;99.90;;;;;;5024751;28;20109;-71
2023/01/03 11:36:14;;;;;;;21.15;8.23;;;7.90;99.90;;;;;;5028045;28;20038;-72
2023/01/03 11:38:52;;;;;;;20.67;7.80;;;7.90;99.90;;;;;;5026112;28;20065;-72
2023/01/03 11:41:17;;;;;;;18.77;8.48;;;7.90;99.90;;;;;;5025231;28;20033;-71
2023/01/03 11:43:49;;;;;;;24.60;8.98;;;8.00;99.90;;;;;;5029141;28;20048;-72
2023/01/03 11:46:42;;;;;;;23.90;8.20;;;8.00;99.90;;;;;;5028406;28;20505;-72
2023/01/03 11:49:23;;;;;;;26.95;9.10;;;8.00;99.90;;;;;;5027574;28;20072;-73
2023/01/03 11:52:05;;;;;;;25.10;9.52;;;8.00;99.90;;;;;;5026606;28;20110;-73
2023/01/03 11:54:53;;;;;;;21.38;7.93;;;7.90;99.90;;;;;;5027207;28;20117;-73
2023/01/03 11:57:42;;;;;;;20.33;8.27;;;8.00;99.90;;;;;;5027867;28;20156;-72
2023/01/03 12:00:14;;;;;;;28.67;9.85;;;8.00;99.90;;;;;;5026652;28;20045;-72
2023/01/03 12:02:57;;;;;;;20.80;8.35;;;8.00;99.90;;;;;;5025791;28;20042;-73
2023/01/03 12:05:38;;;;;;;27.80;9.35;;;8.00;99.90;;;;;;5027491;28;20140;-72
2023/01/03 12:08:22;;;;;;;25.88;9.32;;;8.10;99.90;;;;;;5027605;28;20084;-71
2023/01/03 12:10:53;;;;;;;21.83;8.70;;;8.20;99.90;;;;;;5026721;28;20042;-73
2023/01/03 12:13:34;;;;;;;22.38;8.82;;;8.20;99.90;;;;;;5027259;28;20049;-73
2023/01/03 12:16:09;;;;;;;;;;;8.20;99.90;;;;;;5028422;28;20563;-72
2023/01/03 12:18:40;;;;;;;16.02;7.40;;;8.20;99.90;;;;;;5026029;28;19974;-71
2023/01/03 12:21:36;;;;;;;24.63;9.85;;;8.30;99.90;;;;;;5027654;28;20112;-71
2023/01/03 12:24:17;;;;;;;17.55;7.97;;;8.30;99.90;;;;;;5015977;28;20040;-72
2023/01/03 12:26:53;;;;;;;;;;;8.30;99.90;;;;;;5028563;28;20485;-72
2023/01/03 12:29:38;;;;;;;19.20;6.90;;;8.30;99.90;;;;;;5025850;28;19920;-72
2023/01/03 12:32:13;;;;;;;17.92;6.95;;;8.40;99.90;;;;;;5025032;28;20040;-72
2023/01/03 12:34:38;;;;;;;21.33;7.22;;;8.40;99.90;;;;;;5027471;28;20052;-72
2023/01/03 12:37:18;;;;;;;14.40;7.15;;;8.40;99.90;;;;;;5026059;28;20042;-72
2023/01/03 12:39:56;;;;;;;13.48;6.97;;;8.50;99.90;;;;;;5027437;28;20045;-71
2023/01/03 12:42:34;;;;;;;14.57;6.65;;;8.50;99.90;;;;;;5026103;28;20038;-72
2023/01/03 12:45:46;;;;;;;19.70;6.50;;;8.50;99.90;;;;;;5025676;28;20037;-72
2023/01/03 12:48:12;;;;;;;19.20;6.82;;;8.50;99.90;;;;;;4987441;28;20187;-72
2023/01/03 12:50:49;;;;;;;12.45;5.55;;;8.50;99.90;;;;;;5025863;28;20664;-72
2023/01/03 12:53:30;;;;;;;10.85;5.40;;;8.50;99.90;;;;;;5026559;28;20038;-71
2023/01/03 12:56:02;;;;;;;12.38;5.10;;;8.50;99.90;;;;;;5025311;28;20048;-73
2023/01/03 12:58:36;;;;;;;15.93;5.40;;;8.50;99.90;;;;;;5024451;28;20539;-72
2023/01/03 13:01:07;;;;;;;10.50;5.35;;;8.50;99.90;;;;;;5024823;28;20530;-72
2023/01/03 13:04:06;;;;;;;12.82;5.28;;;8.50;99.90;;;;;;5024524;28;20103;-71
2023/01/03 13:06:36;;;;;;;8.07;4.13;;;8.50;99.90;;;;;;5027174;28;20061;-71
2023/01/03 13:09:04;;;;;;;;;;;8.60;99.90;;;;;;5027972;28;20057;-71
2023/01/03 13:11:48;;;;;;;9.40;3.95;;;8.60;99.90;;;;;;5026209;28;19928;-71
2023/01/03 13:14:26;;;;;;;10.38;3.83;;;8.50;99.90;;;;;;5027387;28;20090;-71
2023/01/03 13:16:53;;;;;;;9.75;2.97;;;8.60;99.90;;;;;;5025977;28;20465;-73
2023/01/03 13:19:21;;;;;;;8.88;3.75;;;8.60;99.90;;;;;;5027809;28;20111;-72
2023/01/03 13:21:53;;;;;;;11.18;3.90;;;8.60;99.90;;;;;;5025917;28;20065;-71
2023/01/03 13:24:52;;;;;;;7.20;2.70;;;8.70;99.90;;;;;;5027306;28;20041;-72
2023/01/03 13:27:18;;;;;;;8.82;3.28;;;8.70;99.90;;;;;;4998443;28;20041;-71
2023/01/03 13:29:49;;;;;;;9.63;3.17;;;8.80;99.90;;;;;;5025537;28;20099;-72
2023/01/03 13:32:21;;;;;;;10.50;3.45;;;8.80;99.90;;;;;;5027205;28;20057;-72
2023/01/03 13:34:55;;;;;;;8.35;3.00;;;8.80;99.90;;;;;;5025543;28;20073;-72
2023/01/03 13:37:50;;;;;;;9.60;3.67;;;8.90;99.90;;;;;;5025456;28;20837;-72
2023/01/03 13:40:27;;;;;;;9.63;3.22;;;8.90;99.90;;;;;;5024839;28;20429;-71
2023/01/03 13:43:07;;;;;;;5.00;2.50;;;9.00;99.90;;;;;;5023491;28;20045;-70
2023/01/03 13:45:32;;;;;;;6.97;3.10;;;9.00;99.90;;;;;;5025559;28;20546;-72
2023/01/03 13:48:11;;;;;;;3.97;2.47;;;8.90;99.90;;;;;;5024035;28;20171;-72
2023/01/03 13:50:37;;;;;;;13.70;3.95;;;9.00;99.90;;;;;;5023605;28;20406;-71
2023/01/03 13:53:08;;;;;;;4.72;2.38;;;9.00;99.90;;;;;;5026519;28;20025;-71
2023/01/03 13:55:37;;;;;;;7.85;2.20;;;8.90;99.90;;;;;;5027712;28;20045;-72
2023/01/03 13:58:22;;;;;;;8.27;2.72;;;8.90;99.90;;;;;;5026941;28;20026;-71
2023/01/03 14:00:53;;;;;;;7.70;2.60;;;8.90;99.90;;;;;;5026050;28;20099;-71
2023/01/03 14:03:46;;;;;;;12.98;3.50;;;8.80;99.90;;;;;;5026592;28;20036;-72
2023/01/03 14:06:27;;;;;;;8.75;2.50;;;8.80;99.90;;;;;;5024583;28;20506;-72
2023/01/03 14:09:11;;;;;;;;;;;8.70;99.90;;;;;;5023954;28;20057;-72